Royal Melbourne — WDC2865 — position and weather

sailwx.info

Track history (hours):
 
Tides and Currents Weather Stations Pressure Air Temp Water Temp Dewpoint Dewpoint Depression Visibility Wind Speed Wind Dir Waves Ship Positions

Royal Melbourne

Owner: Harley Marine Services, Inc, Seattle, WA. More information available from US FCC via Universal Licensing System and Coast Guard Vessel Documentation Center.

Last reported at 2017-Jul-24 06:36 UTC. Time now 2017-Jul-24 10:46 UTC.
Position N 37°58' W 122°26'.

Length 22 m; draft 3 m.

Type: Tug. MMSI: 366998830.

Date/timePositionNaut miles runAvg speedWind from/ knotsBaromVisibWave heightAir tempDewpointWater temp
2017-Jul-24 06:36N 37°58' W 122°26'110.6
2017-Jul-24 06:29N 37°56' W 122°26'5 9.6
2017-Jul-24 06:00N 37°52' W 122°24'4 8.2
2017-Jul-24 05:30N 37°48' W 122°22'3 6.7
2017-Jul-24 05:00N 37°45' W 122°21'1 2.2
2017-Jul-24 04:30N 37°44' W 122°20'0 0.1
2017-Jul-24 04:00N 37°44' W 122°20'0 0.0
2017-Jul-24 03:30N 37°44' W 122°20'0 0.1
2017-Jul-24 03:00N 37°44' W 122°20'0 0.2
2017-Jul-24 02:30N 37°44' W 122°20'0 0.1
2017-Jul-24 02:00N 37°44' W 122°20'0 0.1
2017-Jul-24 01:30N 37°44' W 122°20'2 3.7
2017-Jul-24 01:00N 37°46' W 122°21'1 2.9
2017-Jul-24 00:30N 37°48' W 122°21'3 6.3
2017-Jul-24 00:00N 37°48' W 122°17'0 0.0
2017-Jul-23 23:30N 37°48' W 122°17'0 0.0
2017-Jul-23 23:00N 37°48' W 122°17'0 0.0
2017-Jul-23 22:30N 37°48' W 122°17'0 0.0
2017-Jul-23 22:00N 37°48' W 122°17'0 0.0
2017-Jul-23 21:30N 37°48' W 122°17'0 0.0
2017-Jul-23 21:00N 37°48' W 122°17'0 0.0
2017-Jul-23 20:30N 37°48' W 122°17'0 0.0
2017-Jul-23 20:00N 37°48' W 122°17'0 0.0
2017-Jul-23 19:30N 37°48' W 122°17'0 0.0
2017-Jul-23 18:59N 37°48' W 122°17'0 0.0
2017-Jul-23 18:29N 37°48' W 122°17'0 0.0
2017-Jul-23 17:59N 37°48' W 122°17'0 0.0
2017-Jul-23 17:29N 37°48' W 122°17'0 0.0
2017-Jul-23 16:59N 37°48' W 122°17'0 0.0
2017-Jul-23 16:29N 37°48' W 122°17'0 0.0
2017-Jul-23 15:59N 37°48' W 122°17'0 0.0
2017-Jul-23 15:29N 37°48' W 122°17'0 0.0
2017-Jul-23 14:59N 37°48' W 122°17'0 0.0
2017-Jul-23 14:30N 37°48' W 122°17'0 0.0
2017-Jul-23 13:59N 37°48' W 122°17'0 0.0
2017-Jul-23 13:29N 37°48' W 122°17'0 0.0
2017-Jul-23 12:59N 37°48' W 122°17'0 0.0
2017-Jul-23 12:29N 37°48' W 122°17'0 0.0
2017-Jul-23 11:59N 37°48' W 122°17'0 0.0
2017-Jul-23 11:29N 37°48' W 122°17'0 0.0
2017-Jul-23 10:59N 37°48' W 122°17'0 0.0
2017-Jul-23 10:26N 37°48' W 122°17'0 0.0
2017-Jul-23 09:59N 37°48' W 122°17'0 0.0
2017-Jul-23 09:29N 37°48' W 122°17'0 0.0
2017-Jul-23 08:59N 37°48' W 122°17'0 0.0
2017-Jul-23 08:29N 37°48' W 122°17'0 0.0
2017-Jul-23 07:59N 37°48' W 122°17'0 0.0
2017-Jul-23 07:29N 37°48' W 122°17'0 0.0
2017-Jul-23 06:59N 37°48' W 122°17'0 0.0
2017-Jul-23 06:29N 37°48' W 122°17'0 0.0
2017-Jul-23 05:59N 37°48' W 122°17'0 0.0
2017-Jul-23 05:29N 37°48' W 122°17'0 0.0
2017-Jul-23 04:59N 37°48' W 122°17'0 0.0
2017-Jul-23 04:29N 37°48' W 122°17'0 0.0
2017-Jul-23 03:59N 37°48' W 122°17'0 0.0
2017-Jul-23 03:29N 37°48' W 122°17'0 0.0
2017-Jul-23 02:59N 37°48' W 122°17'0 0.0
2017-Jul-23 02:29N 37°48' W 122°17'0 0.0
2017-Jul-23 01:59N 37°48' W 122°17'0 0.0
2017-Jul-23 01:29N 37°48' W 122°17'0 0.0
2017-Jul-23 00:59N 37°48' W 122°17'0 0.0
2017-Jul-23 00:29N 37°48' W 122°17'0 0.0
2017-Jul-22 23:59N 37°48' W 122°17'0 0.0
2017-Jul-22 23:29N 37°48' W 122°17'0 0.0
2017-Jul-22 22:56N 37°48' W 122°17'0 0.0
2017-Jul-22 22:29N 37°48' W 122°17'0 0.0
2017-Jul-22 21:59N 37°48' W 122°17'0 0.0
2017-Jul-22 21:29N 37°48' W 122°17'0 0.0
2017-Jul-22 20:59N 37°48' W 122°17'0 0.0
2017-Jul-22 20:29N 37°48' W 122°17'0 0.0
2017-Jul-22 19:59N 37°48' W 122°17'0 0.0
2017-Jul-22 19:29N 37°48' W 122°17'0 0.1
2017-Jul-22 19:01N 37°48' W 122°17'4 7.0
2017-Jul-22 18:31N 37°49' W 122°21'5 9.0
2017-Jul-22 17:59N 37°53' W 122°24'2 5.2
2017-Jul-22 17:31N 37°54' W 122°22'1 1.3
2017-Jul-22 16:55N 37°55' W 122°22'0 0.0
2017-Jul-22 16:28N 37°55' W 122°22'0 0.0
2017-Jul-22 15:52N 37°55' W 122°22'0 0.0
2017-Jul-22 15:28N 37°55' W 122°22'0 0.0
2017-Jul-22 14:58N 37°55' W 122°22'0 0.0
2017-Jul-22 13:55N 37°55' W 122°22'0 0.0
2017-Jul-22 13:12N 37°55' W 122°22'0 0.0
2017-Jul-22 13:00N 37°55' W 122°22'0 0.3
2017-Jul-22 12:31N 37°55' W 122°22'3 5.4
2017-Jul-22 12:00N 37°54' W 122°25'4 8.9
2017-Jul-22 11:31N 37°50' W 122°22'4 8.9
2017-Jul-22 11:00N 37°48' W 122°17'0 0.0
2017-Jul-22 10:31N 37°48' W 122°17'0 0.0
2017-Jul-22 10:00N 37°48' W 122°17'0 0.0
2017-Jul-22 09:31N 37°48' W 122°17'0 0.0
2017-Jul-22 09:01N 37°48' W 122°17'0 0.0
2017-Jul-22 08:31N 37°48' W 122°17'0 0.0
2017-Jul-22 08:00N 37°48' W 122°17'0 0.0
2017-Jul-22 07:30N 37°48' W 122°17'0 0.0
2017-Jul-22 07:00N 37°48' W 122°17'0 0.0
2017-Jul-22 06:31N 37°48' W 122°17'0 0.0
2017-Jul-22 06:01N 37°48' W 122°17'0 0.0
2017-Jul-22 05:31N 37°48' W 122°17'0 0.0
2017-Jul-22 05:01N 37°48' W 122°17'0 0.0
2017-Jul-22 04:30N 37°48' W 122°17'0 0.0
2017-Jul-22 04:01N 37°48' W 122°17'2 4.6
2017-Jul-22 03:31N 37°48' W 122°20'3 5.1
2017-Jul-22 03:00N 37°45' W 122°21'0 0.1
2017-Jul-22 02:29N 37°45' W 122°21'0 0.0
2017-Jul-22 01:59N 37°45' W 122°21'0 0.1
2017-Jul-22 01:29N 37°46' W 122°21'0 0.1
2017-Jul-22 00:59N 37°46' W 122°21'0 0.1
2017-Jul-22 00:29N 37°46' W 122°21'0 0.1
2017-Jul-21 23:59N 37°46' W 122°21'0 0.0
2017-Jul-21 23:29N 37°46' W 122°21'0 0.0
2017-Jul-21 22:59N 37°46' W 122°21'0 0.1
2017-Jul-21 22:29N 37°46' W 122°21'0 0.0
2017-Jul-21 21:59N 37°46' W 122°21'0 0.0
2017-Jul-21 21:29N 37°46' W 122°21'0 0.1
2017-Jul-21 20:59N 37°46' W 122°21'0 0.1
2017-Jul-21 20:29N 37°46' W 122°21'0 0.0
2017-Jul-21 19:59N 37°46' W 122°21'0 0.2
2017-Jul-21 19:29N 37°46' W 122°21'0 0.2
2017-Jul-21 18:59N 37°46' W 122°21'0 0.1
2017-Jul-21 18:29N 37°45' W 122°21'0 0.1
2017-Jul-21 17:59N 37°45' W 122°21'0 0.0
2017-Jul-21 17:29N 37°45' W 122°21'0 0.0
2017-Jul-21 17:00N 37°45' W 122°21'3 6.4
2017-Jul-21 16:30N 37°48' W 122°22'5 9.3
2017-Jul-21 16:00N 37°53' W 122°24'3 5.4
2017-Jul-21 15:30N 37°54' W 122°22'1 1.0
2017-Jul-21 14:54N 37°55' W 122°22'0 0.0
2017-Jul-21 14:24N 37°55' W 122°22'0 0.0
2017-Jul-21 14:00N 37°55' W 122°22'0 0.0
2017-Jul-21 13:24N 37°55' W 122°22'0 0.0
2017-Jul-21 13:00N 37°55' W 122°22'0 0.0
2017-Jul-21 12:30N 37°55' W 122°22'0 0.0
2017-Jul-21 12:00N 37°55' W 122°22'0 0.0
2017-Jul-21 11:27N 37°55' W 122°22'0 0.0
2017-Jul-21 11:00N 37°55' W 122°22'0 0.0
2017-Jul-21 10:30N 37°55' W 122°22'0 0.0
2017-Jul-21 10:00N 37°55' W 122°22'0 0.0
2017-Jul-21 09:27N 37°55' W 122°22'0 0.0
2017-Jul-21 09:00N 37°55' W 122°22'0 0.1
2017-Jul-21 08:30N 37°55' W 122°22'0 0.0
2017-Jul-21 07:58N 37°55' W 122°22'0 0.0
2017-Jul-21 07:19N 37°55' W 122°22'0 0.0
2017-Jul-21 06:58N 37°55' W 122°22'0 0.0
2017-Jul-21 06:22N 37°55' W 122°22'0 0.0
2017-Jul-21 05:58N 37°55' W 122°22'0 0.0
2017-Jul-21 05:25N 37°55' W 122°22'0 0.0
2017-Jul-21 04:55N 37°55' W 122°22'0 0.0
2017-Jul-21 04:28N 37°55' W 122°22'0 0.0
2017-Jul-21 03:58N 37°55' W 122°22'0 0.0
2017-Jul-21 03:28N 37°55' W 122°22'0 0.0
2017-Jul-21 02:55N 37°55' W 122°22'0 0.0
2017-Jul-21 02:28N 37°55' W 122°22'0 0.0
2017-Jul-21 01:58N 37°55' W 122°22'0 0.0
2017-Jul-21 01:30N 37°55' W 122°22'1 2.7
2017-Jul-21 01:00N 37°54' W 122°23'3 6.0
2017-Jul-21 00:30N 37°51' W 122°23'4 8.2
2017-Jul-21 00:00N 37°48' W 122°20'3 5.1
2017-Jul-20 23:30N 37°48' W 122°17'0 0.0
2017-Jul-20 22:56N 37°48' W 122°17'0 0.0
2017-Jul-20 22:29N 37°48' W 122°17'0 0.0
2017-Jul-20 21:59N 37°48' W 122°17'0 0.0
2017-Jul-20 21:29N 37°48' W 122°17'0 0.0
2017-Jul-20 20:59N 37°48' W 122°17'0 0.0
2017-Jul-20 20:29N 37°48' W 122°17'0 0.0
2017-Jul-20 19:59N 37°48' W 122°17'0 0.0
2017-Jul-20 19:29N 37°48' W 122°17'1 2.3
2017-Jul-20 19:01N 37°48' W 122°18'4 8.4
2017-Jul-20 18:30N 37°48' W 122°24'0 0.7
2017-Jul-20 18:00N 37°48' W 122°24'0 0.1
2017-Jul-20 17:30N 37°48' W 122°24'0 0.0
2017-Jul-20 17:00N 37°48' W 122°24'0 0.0
2017-Jul-20 16:30N 37°48' W 122°24'0 0.1
2017-Jul-20 16:00N 37°48' W 122°24'0 0.1
2017-Jul-20 15:30N 37°48' W 122°24'0 0.0
2017-Jul-20 15:00N 37°48' W 122°24'0 0.0
2017-Jul-20 14:00N 37°48' W 122°24'2 3.3
2017-Jul-20 13:30N 37°50' W 122°24'4 8.3
2017-Jul-20 13:00N 37°54' W 122°25'2 4.9
2017-Jul-20 12:30N 37°55' W 122°22'0 0.0
2017-Jul-20 11:52N 37°55' W 122°22'0 0.0
2017-Jul-20 11:25N 37°55' W 122°22'0 0.0
2017-Jul-20 10:49N 37°55' W 122°22'0 0.0
2017-Jul-20 10:28N 37°55' W 122°22'0 0.0
2017-Jul-20 09:58N 37°55' W 122°22'0 0.0
2017-Jul-20 09:25N 37°55' W 122°22'0 0.0
2017-Jul-20 08:58N 37°55' W 122°22'0 0.0
2017-Jul-20 08:25N 37°55' W 122°22'0 0.0
2017-Jul-20 07:34N 37°55' W 122°22'0 0.0
2017-Jul-20 07:22N 37°55' W 122°22'0 0.0
2017-Jul-20 06:28N 37°55' W 122°22'0 0.0
2017-Jul-20 05:55N 37°55' W 122°22'0 0.0
2017-Jul-20 05:28N 37°55' W 122°22'0 0.0
2017-Jul-20 04:55N 37°55' W 122°22'0 0.0
2017-Jul-20 04:28N 37°55' W 122°22'0 0.0
2017-Jul-20 03:55N 37°55' W 122°22'0 0.0
2017-Jul-20 03:28N 37°55' W 122°22'0 0.0
2017-Jul-20 02:46N 37°55' W 122°22'0 0.0
2017-Jul-20 02:28N 37°55' W 122°22'0 0.0
2017-Jul-20 01:58N 37°55' W 122°22'0 0.0
2017-Jul-20 01:19N 37°55' W 122°22'0 0.0
2017-Jul-20 00:52N 37°55' W 122°22'0 0.0
2017-Jul-20 00:28N 37°55' W 122°22'0 0.0
2017-Jul-19 23:55N 37°55' W 122°22'0 0.0
2017-Jul-19 23:28N 37°55' W 122°22'0 0.0
2017-Jul-19 22:58N 37°55' W 122°22'0 0.0
2017-Jul-19 22:25N 37°55' W 122°22'0 0.0
2017-Jul-19 21:58N 37°55' W 122°22'0 0.0
2017-Jul-19 21:28N 37°55' W 122°22'0 0.0
2017-Jul-19 20:58N 37°55' W 122°22'0 0.0
2017-Jul-19 20:28N 37°55' W 122°22'0 0.0
2017-Jul-19 19:58N 37°55' W 122°22'0 0.0
2017-Jul-19 19:28N 37°55' W 122°22'0 0.0
2017-Jul-19 18:58N 37°55' W 122°22'0 0.0
2017-Jul-19 18:22N 37°55' W 122°22'0 0.0
2017-Jul-19 17:58N 37°55' W 122°22'0 0.0
2017-Jul-19 17:22N 37°55' W 122°22'0 0.0
2017-Jul-19 16:52N 37°55' W 122°22'0 0.0
2017-Jul-19 16:28N 37°55' W 122°22'0 0.0
2017-Jul-19 16:01N 37°55' W 122°22'0 0.0
2017-Jul-19 15:30N 37°55' W 122°22'0 0.0
2017-Jul-19 15:00N 37°55' W 122°22'0 0.0
2017-Jul-19 14:27N 37°55' W 122°22'0 0.0
2017-Jul-19 14:00N 37°55' W 122°22'0 0.0
2017-Jul-19 13:30N 37°55' W 122°22'0 0.0
2017-Jul-19 13:00N 37°55' W 122°22'1 2.3
2017-Jul-19 12:30N 37°54' W 122°23'3 5.5
2017-Jul-19 12:00N 37°52' W 122°24'4 8.5
2017-Jul-19 11:31N 37°48' W 122°21'3 5.7
2017-Jul-19 11:00N 37°48' W 122°17'0 0.0
2017-Jul-19 10:28N 37°48' W 122°17'0 0.0
2017-Jul-19 09:58N 37°48' W 122°17'0 0.0
2017-Jul-19 09:25N 37°48' W 122°17'0 0.0
2017-Jul-19 08:58N 37°48' W 122°17'0 0.0
2017-Jul-19 08:28N 37°48' W 122°17'0 0.0
2017-Jul-19 07:58N 37°48' W 122°17'0 0.0
2017-Jul-19 07:28N 37°48' W 122°17'0 0.0
2017-Jul-19 06:58N 37°48' W 122°17'0 0.0
2017-Jul-19 06:28N 37°48' W 122°17'0 0.0
2017-Jul-19 05:58N 37°48' W 122°17'0 0.0
2017-Jul-19 05:28N 37°48' W 122°17'0 0.0
2017-Jul-19 04:58N 37°48' W 122°17'0 0.0
2017-Jul-19 04:28N 37°48' W 122°17'0 0.0
2017-Jul-19 03:58N 37°48' W 122°17'0 0.0
2017-Jul-19 03:28N 37°48' W 122°17'0 0.0
2017-Jul-19 02:58N 37°48' W 122°17'0 0.0
2017-Jul-19 02:28N 37°48' W 122°17'0 0.0
2017-Jul-19 01:55N 37°48' W 122°17'0 0.0
2017-Jul-19 01:28N 37°48' W 122°17'0 0.0
2017-Jul-19 00:58N 37°48' W 122°17'0 0.0
2017-Jul-19 00:30N 37°48' W 122°17'0 0.0
2017-Jul-18 23:57N 37°48' W 122°17'0 0.0
2017-Jul-18 23:27N 37°48' W 122°17'0 0.0
2017-Jul-18 23:00N 37°48' W 122°17'0 0.0
2017-Jul-18 22:30N 37°48' W 122°17'0 0.0
2017-Jul-18 22:00N 37°48' W 122°17'0 0.0
2017-Jul-18 21:30N 37°48' W 122°17'0 0.0
2017-Jul-18 21:00N 37°48' W 122°17'0 0.0
2017-Jul-18 20:27N 37°48' W 122°17'0 0.0
2017-Jul-18 20:00N 37°48' W 122°17'0 0.0
2017-Jul-18 19:27N 37°48' W 122°17'0 0.0
2017-Jul-18 18:57N 37°48' W 122°17'0 0.0
2017-Jul-18 18:27N 37°48' W 122°17'0 0.0
2017-Jul-18 17:57N 37°48' W 122°17'0 0.0
2017-Jul-18 17:30N 37°48' W 122°17'0 0.0
2017-Jul-18 17:00N 37°48' W 122°17'0 0.0
2017-Jul-18 16:30N 37°48' W 122°17'0 0.0
2017-Jul-18 15:57N 37°48' W 122°17'0 0.0
2017-Jul-18 15:27N 37°48' W 122°17'0 0.0
2017-Jul-18 15:00N 37°48' W 122°17'0 0.0
2017-Jul-18 13:57N 37°48' W 122°17'0 0.0
2017-Jul-18 13:30N 37°48' W 122°17'0 0.0
2017-Jul-18 12:57N 37°48' W 122°17'0 0.0
2017-Jul-18 12:30N 37°48' W 122°17'0 0.0
2017-Jul-18 12:00N 37°48' W 122°17'0 0.0
2017-Jul-18 11:30N 37°48' W 122°17'0 0.0
2017-Jul-18 11:00N 37°48' W 122°17'0 0.0
2017-Jul-18 10:30N 37°48' W 122°17'0 0.0
2017-Jul-18 09:54N 37°48' W 122°17'0 0.0
2017-Jul-18 09:30N 37°48' W 122°17'0 0.0
2017-Jul-18 09:00N 37°48' W 122°17'0 0.0
2017-Jul-18 08:30N 37°48' W 122°17'0 0.0
2017-Jul-18 07:59N 37°48' W 122°17'0 0.0
2017-Jul-18 07:29N 37°48' W 122°17'0 0.0
2017-Jul-18 06:59N 37°48' W 122°17'0 0.0
2017-Jul-18 06:29N 37°48' W 122°17'0 0.0
2017-Jul-18 05:59N 37°48' W 122°17'0 0.0
2017-Jul-18 05:29N 37°48' W 122°17'0 0.0
2017-Jul-18 04:59N 37°48' W 122°17'0 0.0
2017-Jul-18 04:29N 37°48' W 122°17'0 0.0
2017-Jul-18 03:59N 37°48' W 122°17'0 0.0
2017-Jul-18 03:29N 37°48' W 122°17'0 0.0
2017-Jul-18 02:59N 37°48' W 122°17'0 0.0
2017-Jul-18 02:29N 37°48' W 122°17'0 0.0
2017-Jul-18 01:59N 37°48' W 122°17'0 0.0
2017-Jul-18 01:29N 37°48' W 122°17'0 0.0
2017-Jul-18 00:59N 37°48' W 122°17'0 0.0
2017-Jul-18 00:26N 37°48' W 122°17'0 0.0
2017-Jul-17 23:59N 37°48' W 122°17'0 0.0
2017-Jul-17 23:29N 37°48' W 122°17'0 0.0
2017-Jul-17 22:59N 37°48' W 122°17'0 0.1
2017-Jul-17 22:30N 37°48' W 122°17'1 1.8
2017-Jul-17 22:00N 37°48' W 122°18'3 7.0
2017-Jul-17 21:30N 37°48' W 122°23'1 2.2
2017-Jul-17 20:59N 37°48' W 122°24'0 0.0
2017-Jul-17 20:29N 37°48' W 122°24'0 0.1
2017-Jul-17 19:56N 37°48' W 122°24'0 0.0
2017-Jul-17 19:17N 37°48' W 122°24'0 0.0
2017-Jul-17 18:59N 37°48' W 122°24'0 0.0
2017-Jul-17 18:29N 37°48' W 122°24'0 0.1
2017-Jul-17 17:56N 37°48' W 122°24'0 0.1
2017-Jul-17 17:29N 37°48' W 122°24'0 0.0
2017-Jul-17 16:59N 37°48' W 122°24'0 0.1
2017-Jul-17 16:29N 37°48' W 122°24'0 0.1
2017-Jul-17 15:59N 37°48' W 122°24'0 0.1
2017-Jul-17 15:29N 37°48' W 122°24'0 0.1
2017-Jul-17 14:59N 37°48' W 122°24'0 0.0
2017-Jul-17 14:30N 37°48' W 122°24'0 0.4
2017-Jul-17 14:00N 37°48' W 122°24'1 1.6
2017-Jul-17 13:30N 37°49' W 122°24'4 7.0
2017-Jul-17 13:00N 37°53' W 122°24'2 4.1
2017-Jul-17 12:30N 37°54' W 122°23'1 1.6
2017-Jul-17 11:54N 37°55' W 122°22'0 0.0
2017-Jul-17 11:27N 37°55' W 122°22'0 0.0
2017-Jul-17 10:54N 37°55' W 122°22'0 0.0
2017-Jul-17 10:24N 37°55' W 122°22'0 0.0
2017-Jul-17 10:00N 37°55' W 122°22'0 0.0
2017-Jul-17 09:27N 37°55' W 122°22'0 0.0
2017-Jul-17 08:57N 37°55' W 122°22'0 0.0
2017-Jul-17 08:27N 37°55' W 122°22'0 0.0
2017-Jul-17 07:57N 37°55' W 122°22'0 0.0
2017-Jul-17 07:27N 37°55' W 122°22'0 0.0
2017-Jul-17 06:54N 37°55' W 122°22'0 0.0
2017-Jul-17 06:24N 37°55' W 122°22'0 0.0
2017-Jul-17 06:00N 37°55' W 122°22'0 0.0
2017-Jul-17 05:30N 37°55' W 122°22'0 0.0
2017-Jul-17 04:57N 37°55' W 122°22'0 0.0
2017-Jul-17 04:30N 37°55' W 122°22'0 0.0
2017-Jul-17 03:57N 37°55' W 122°22'0 0.0
2017-Jul-17 03:27N 37°55' W 122°22'0 0.0
2017-Jul-17 02:57N 37°55' W 122°22'0 0.0
2017-Jul-17 02:30N 37°55' W 122°22'0 0.0
2017-Jul-17 01:45N 37°55' W 122°22'0 0.0
2017-Jul-17 01:29N 37°55' W 122°22'0 0.0
2017-Jul-17 00:59N 37°55' W 122°22'0 0.0
2017-Jul-17 00:14N 37°55' W 122°22'0 0.0
2017-Jul-16 23:59N 37°55' W 122°22'0 0.0
2017-Jul-16 23:17N 37°55' W 122°22'0 0.0
2017-Jul-16 22:38N 37°55' W 122°22'0 0.0
2017-Jul-16 22:17N 37°55' W 122°22'0 0.0
2017-Jul-16 21:50N 37°55' W 122°22'0 0.0
2017-Jul-16 21:14N 37°55' W 122°22'0 0.0
2017-Jul-16 20:56N 37°55' W 122°22'0 0.0
2017-Jul-16 20:20N 37°55' W 122°22'0 0.0
2017-Jul-16 19:50N 37°55' W 122°22'0 0.0
2017-Jul-16 19:26N 37°55' W 122°22'0 0.0
2017-Jul-16 18:44N 37°55' W 122°22'0 0.0
2017-Jul-16 18:20N 37°55' W 122°22'0 0.0
2017-Jul-16 17:50N 37°55' W 122°22'0 0.0
2017-Jul-16 16:32N 37°55' W 122°22'0 0.0
2017-Jul-16 16:14N 37°55' W 122°22'0 0.0
2017-Jul-16 15:56N 37°55' W 122°22'0 0.0
2017-Jul-16 15:26N 37°55' W 122°22'0 0.0
2017-Jul-16 14:38N 37°55' W 122°22'0 0.0
2017-Jul-16 14:29N 37°55' W 122°22'0 0.0
2017-Jul-16 13:59N 37°55' W 122°22'0 0.0
2017-Jul-16 13:26N 37°55' W 122°22'0 0.0
2017-Jul-16 12:59N 37°55' W 122°22'0 0.0
2017-Jul-16 12:23N 37°55' W 122°22'0 0.0
2017-Jul-16 11:56N 37°55' W 122°22'0 0.0
2017-Jul-16 11:29N 37°55' W 122°22'0 0.0
2017-Jul-16 10:59N 37°55' W 122°22'0 0.0
2017-Jul-16 10:29N 37°55' W 122°22'0 0.0
2017-Jul-16 09:53N 37°55' W 122°22'0 0.0
2017-Jul-16 09:29N 37°55' W 122°22'0 0.0
2017-Jul-16 08:50N 37°55' W 122°22'0 0.0
2017-Jul-16 08:20N 37°55' W 122°22'0 0.0
2017-Jul-16 07:50N 37°55' W 122°22'0 0.0
2017-Jul-16 07:02N 37°55' W 122°22'0 0.0
2017-Jul-16 06:56N 37°55' W 122°22'0 0.0
2017-Jul-16 06:26N 37°55' W 122°22'0 0.0
2017-Jul-16 05:50N 37°55' W 122°22'0 0.0
2017-Jul-16 05:20N 37°55' W 122°22'0 0.0
2017-Jul-16 04:59N 37°55' W 122°22'0 0.0
2017-Jul-16 04:29N 37°55' W 122°22'0 0.0
2017-Jul-16 03:59N 37°55' W 122°22'0 0.0
2017-Jul-16 03:20N 37°55' W 122°22'0 0.0
2017-Jul-16 02:56N 37°55' W 122°22'0 0.0
2017-Jul-16 02:26N 37°55' W 122°22'0 0.0
2017-Jul-16 01:53N 37°55' W 122°22'0 0.0
2017-Jul-16 01:20N 37°55' W 122°22'0 0.0
2017-Jul-16 00:56N 37°55' W 122°22'0 0.0
2017-Jul-16 00:26N 37°55' W 122°22'0 0.0
2017-Jul-15 23:43N 37°55' W 122°22'0 0.0
2017-Jul-15 23:30N 37°55' W 122°22'3 5.1
2017-Jul-15 23:00N 37°54' W 122°25'5 9.2
2017-Jul-15 22:30N 37°50' W 122°23'4 7.3
2017-Jul-15 22:01N 37°46' W 122°21'0 0.9
2017-Jul-15 21:29N 37°46' W 122°20'0 0.0
2017-Jul-15 20:59N 37°46' W 122°20'0 0.0
2017-Jul-15 20:29N 37°46' W 122°20'0 0.0
2017-Jul-15 19:59N 37°46' W 122°20'0 0.0
2017-Jul-15 19:29N 37°46' W 122°20'0 0.2
2017-Jul-15 19:01N 37°46' W 122°20'2 3.6
2017-Jul-15 18:31N 37°48' W 122°20'2 3.9
2017-Jul-15 17:58N 37°48' W 122°17'0 0.0
2017-Jul-15 17:28N 37°48' W 122°17'0 0.0
2017-Jul-15 16:58N 37°48' W 122°17'0 0.0
2017-Jul-15 16:25N 37°48' W 122°17'0 0.0
2017-Jul-15 15:58N 37°48' W 122°17'0 0.0
2017-Jul-15 15:28N 37°48' W 122°17'0 0.0
2017-Jul-15 14:58N 37°48' W 122°17'0 0.0
2017-Jul-15 13:58N 37°48' W 122°17'0 0.0
2017-Jul-15 13:28N 37°48' W 122°17'0 0.0
2017-Jul-15 12:58N 37°48' W 122°17'0 0.0
2017-Jul-15 12:28N 37°48' W 122°17'0 0.0
2017-Jul-15 11:55N 37°48' W 122°17'0 0.0
2017-Jul-15 11:28N 37°48' W 122°17'0 0.0
2017-Jul-15 10:58N 37°48' W 122°17'0 0.0
2017-Jul-15 10:22N 37°48' W 122°17'0 0.0
2017-Jul-15 09:58N 37°48' W 122°17'0 0.0
2017-Jul-15 09:28N 37°48' W 122°17'0 0.0
2017-Jul-15 08:55N 37°48' W 122°17'0 0.0
2017-Jul-15 08:28N 37°48' W 122°17'0 0.0
2017-Jul-15 07:58N 37°48' W 122°17'0 0.0
2017-Jul-15 07:28N 37°48' W 122°17'0 0.0
2017-Jul-15 07:00N 37°48' W 122°17'3 6.0
2017-Jul-15 06:30N 37°47' W 122°21'4 7.2
2017-Jul-15 06:00N 37°44' W 122°20'0 0.1
2017-Jul-15 05:31N 37°44' W 122°20'0 0.1
2017-Jul-15 05:00N 37°44' W 122°20'0 0.0
2017-Jul-15 04:31N 37°44' W 122°20'0 0.1
2017-Jul-15 04:01N 37°44' W 122°20'0 0.1
2017-Jul-15 03:30N 37°44' W 122°20'0 0.0
2017-Jul-15 03:00N 37°44' W 122°20'0 0.1
2017-Jul-15 02:30N 37°44' W 122°19'0 0.2
2017-Jul-15 02:00N 37°44' W 122°19'0 0.1
2017-Jul-15 01:30N 37°44' W 122°19'2 4.4
2017-Jul-15 01:00N 37°46' W 122°20'3 5.1
2017-Jul-15 00:30N 37°48' W 122°18'1 1.7
2017-Jul-15 00:00N 37°48' W 122°17'0 0.0
2017-Jul-14 23:30N 37°48' W 122°17'0 0.0
2017-Jul-14 23:00N 37°48' W 122°17'0 0.0
2017-Jul-14 22:30N 37°48' W 122°17'0 0.0
2017-Jul-14 22:00N 37°48' W 122°17'0 0.0
2017-Jul-14 21:30N 37°48' W 122°17'0 0.0
2017-Jul-14 21:00N 37°48' W 122°17'0 0.0
2017-Jul-14 20:30N 37°48' W 122°17'0 0.0
2017-Jul-14 20:00N 37°48' W 122°17'0 0.0
2017-Jul-14 19:30N 37°48' W 122°17'0 0.0
2017-Jul-14 19:00N 37°48' W 122°17'0 0.0
2017-Jul-14 18:30N 37°48' W 122°17'0 0.0
2017-Jul-14 18:00N 37°48' W 122°17'0 0.0
2017-Jul-14 17:30N 37°48' W 122°17'0 0.0
2017-Jul-14 17:00N 37°48' W 122°17'0 0.0
2017-Jul-14 16:30N 37°48' W 122°17'0 0.0
2017-Jul-14 16:00N 37°48' W 122°17'0 0.0
2017-Jul-14 15:30N 37°48' W 122°17'0 0.0
2017-Jul-14 15:00N 37°48' W 122°17'0 0.0
2017-Jul-14 14:31N 37°48' W 122°17'0 0.0
2017-Jul-14 14:00N 37°48' W 122°17'0 0.0
2017-Jul-14 13:30N 37°48' W 122°17'0 0.0
2017-Jul-14 13:00N 37°48' W 122°17'0 0.0
2017-Jul-14 12:31N 37°48' W 122°17'0 0.0
2017-Jul-14 12:00N 37°48' W 122°17'0 0.0
2017-Jul-14 11:30N 37°48' W 122°17'0 0.0
2017-Jul-14 11:00N 37°48' W 122°17'0 0.0
2017-Jul-14 10:30N 37°48' W 122°17'0 0.0
2017-Jul-14 10:00N 37°48' W 122°17'0 0.0
2017-Jul-14 09:30N 37°48' W 122°17'0 0.0
2017-Jul-14 09:00N 37°48' W 122°17'0 0.0
2017-Jul-14 08:31N 37°48' W 122°17'0 0.0
2017-Jul-14 08:00N 37°48' W 122°17'0 0.0
2017-Jul-14 07:31N 37°48' W 122°17'0 0.0
2017-Jul-14 07:00N 37°48' W 122°17'  
Track history (hours):
 
Tides and Currents Weather Stations Pressure Air Temp Water Temp Dewpoint Dewpoint Depression Visibility Wind Speed Wind Dir Waves Ship Positions

Royal Melbourne

Owner: Harley Marine Services, Inc, Seattle, WA. More information available from US FCC via Universal Licensing System and Coast Guard Vessel Documentation Center.

Last reported at 2017-Jul-24 06:36 UTC. Time now 2017-Jul-24 10:46 UTC.
Position N 37°58' W 122°26'.

Length 22 m; draft 3 m.

Type: Tug. MMSI: 366998830.

Date/timePositionNaut miles runAvg speedWind from/ knotsBaromVisibWave heightAir tempDewpointWater temp
2017-Jul-24 06:36N 37°58' W 122°26'110.6
2017-Jul-24 06:29N 37°56' W 122°26'5 9.6
2017-Jul-24 06:00N 37°52' W 122°24'4 8.2
2017-Jul-24 05:30N 37°48' W 122°22'3 6.7
2017-Jul-24 05:00N 37°45' W 122°21'1 2.2
2017-Jul-24 04:30N 37°44' W 122°20'0 0.1
2017-Jul-24 04:00N 37°44' W 122°20'0 0.0
2017-Jul-24 03:30N 37°44' W 122°20'0 0.1
2017-Jul-24 03:00N 37°44' W 122°20'0 0.2
2017-Jul-24 02:30N 37°44' W 122°20'0 0.1
2017-Jul-24 02:00N 37°44' W 122°20'0 0.1
2017-Jul-24 01:30N 37°44' W 122°20'2 3.7
2017-Jul-24 01:00N 37°46' W 122°21'1 2.9
2017-Jul-24 00:30N 37°48' W 122°21'3 6.3
2017-Jul-24 00:00N 37°48' W 122°17'0 0.0
2017-Jul-23 23:30N 37°48' W 122°17'0 0.0
2017-Jul-23 23:00N 37°48' W 122°17'0 0.0
2017-Jul-23 22:30N 37°48' W 122°17'0 0.0
2017-Jul-23 22:00N 37°48' W 122°17'0 0.0
2017-Jul-23 21:30N 37°48' W 122°17'0 0.0
2017-Jul-23 21:00N 37°48' W 122°17'0 0.0
2017-Jul-23 20:30N 37°48' W 122°17'0 0.0
2017-Jul-23 20:00N 37°48' W 122°17'0 0.0
2017-Jul-23 19:30N 37°48' W 122°17'0 0.0
2017-Jul-23 18:59N 37°48' W 122°17'0 0.0
2017-Jul-23 18:29N 37°48' W 122°17'0 0.0
2017-Jul-23 17:59N 37°48' W 122°17'0 0.0
2017-Jul-23 17:29N 37°48' W 122°17'0 0.0
2017-Jul-23 16:59N 37°48' W 122°17'0 0.0
2017-Jul-23 16:29N 37°48' W 122°17'0 0.0
2017-Jul-23 15:59N 37°48' W 122°17'0 0.0
2017-Jul-23 15:29N 37°48' W 122°17'0 0.0
2017-Jul-23 14:59N 37°48' W 122°17'0 0.0
2017-Jul-23 14:30N 37°48' W 122°17'0 0.0
2017-Jul-23 13:59N 37°48' W 122°17'0 0.0
2017-Jul-23 13:29N 37°48' W 122°17'0 0.0
2017-Jul-23 12:59N 37°48' W 122°17'0 0.0
2017-Jul-23 12:29N 37°48' W 122°17'0 0.0
2017-Jul-23 11:59N 37°48' W 122°17'0 0.0
2017-Jul-23 11:29N 37°48' W 122°17'0 0.0
2017-Jul-23 10:59N 37°48' W 122°17'0 0.0
2017-Jul-23 10:26N 37°48' W 122°17'0 0.0
2017-Jul-23 09:59N 37°48' W 122°17'0 0.0
2017-Jul-23 09:29N 37°48' W 122°17'0 0.0
2017-Jul-23 08:59N 37°48' W 122°17'0 0.0
2017-Jul-23 08:29N 37°48' W 122°17'0 0.0
2017-Jul-23 07:59N 37°48' W 122°17'0 0.0
2017-Jul-23 07:29N 37°48' W 122°17'0 0.0
2017-Jul-23 06:59N 37°48' W 122°17'0 0.0
2017-Jul-23 06:29N 37°48' W 122°17'0 0.0
2017-Jul-23 05:59N 37°48' W 122°17'0 0.0
2017-Jul-23 05:29N 37°48' W 122°17'0 0.0
2017-Jul-23 04:59N 37°48' W 122°17'0 0.0
2017-Jul-23 04:29N 37°48' W 122°17'0 0.0
2017-Jul-23 03:59N 37°48' W 122°17'0 0.0
2017-Jul-23 03:29N 37°48' W 122°17'0 0.0
2017-Jul-23 02:59N 37°48' W 122°17'0 0.0
2017-Jul-23 02:29N 37°48' W 122°17'0 0.0
2017-Jul-23 01:59N 37°48' W 122°17'0 0.0
2017-Jul-23 01:29N 37°48' W 122°17'0 0.0
2017-Jul-23 00:59N 37°48' W 122°17'0 0.0
2017-Jul-23 00:29N 37°48' W 122°17'0 0.0
2017-Jul-22 23:59N 37°48' W 122°17'0 0.0
2017-Jul-22 23:29N 37°48' W 122°17'0 0.0
2017-Jul-22 22:56N 37°48' W 122°17'0 0.0
2017-Jul-22 22:29N 37°48' W 122°17'0 0.0
2017-Jul-22 21:59N 37°48' W 122°17'0 0.0
2017-Jul-22 21:29N 37°48' W 122°17'0 0.0
2017-Jul-22 20:59N 37°48' W 122°17'0 0.0
2017-Jul-22 20:29N 37°48' W 122°17'0 0.0
2017-Jul-22 19:59N 37°48' W 122°17'0 0.0
2017-Jul-22 19:29N 37°48' W 122°17'0 0.1
2017-Jul-22 19:01N 37°48' W 122°17'4 7.0
2017-Jul-22 18:31N 37°49' W 122°21'5 9.0
2017-Jul-22 17:59N 37°53' W 122°24'2 5.2
2017-Jul-22 17:31N 37°54' W 122°22'1 1.3
2017-Jul-22 16:55N 37°55' W 122°22'0 0.0
2017-Jul-22 16:28N 37°55' W 122°22'0 0.0
2017-Jul-22 15:52N 37°55' W 122°22'0 0.0
2017-Jul-22 15:28N 37°55' W 122°22'0 0.0
2017-Jul-22 14:58N 37°55' W 122°22'0 0.0
2017-Jul-22 13:55N 37°55' W 122°22'0 0.0
2017-Jul-22 13:12N 37°55' W 122°22'0 0.0
2017-Jul-22 13:00N 37°55' W 122°22'0 0.3
2017-Jul-22 12:31N 37°55' W 122°22'3 5.4
2017-Jul-22 12:00N 37°54' W 122°25'4 8.9
2017-Jul-22 11:31N 37°50' W 122°22'4 8.9
2017-Jul-22 11:00N 37°48' W 122°17'0 0.0
2017-Jul-22 10:31N 37°48' W 122°17'0 0.0
2017-Jul-22 10:00N 37°48' W 122°17'0 0.0
2017-Jul-22 09:31N 37°48' W 122°17'0 0.0
2017-Jul-22 09:01N 37°48' W 122°17'0 0.0
2017-Jul-22 08:31N 37°48' W 122°17'0 0.0
2017-Jul-22 08:00N 37°48' W 122°17'0 0.0
2017-Jul-22 07:30N 37°48' W 122°17'0 0.0
2017-Jul-22 07:00N 37°48' W 122°17'0 0.0
2017-Jul-22 06:31N 37°48' W 122°17'0 0.0
2017-Jul-22 06:01N 37°48' W 122°17'0 0.0
2017-Jul-22 05:31N 37°48' W 122°17'0 0.0
2017-Jul-22 05:01N 37°48' W 122°17'0 0.0
2017-Jul-22 04:30N 37°48' W 122°17'0 0.0
2017-Jul-22 04:01N 37°48' W 122°17'2 4.6
2017-Jul-22 03:31N 37°48' W 122°20'3 5.1
2017-Jul-22 03:00N 37°45' W 122°21'0 0.1
2017-Jul-22 02:29N 37°45' W 122°21'0 0.0
2017-Jul-22 01:59N 37°45' W 122°21'0 0.1
2017-Jul-22 01:29N 37°46' W 122°21'0 0.1
2017-Jul-22 00:59N 37°46' W 122°21'0 0.1
2017-Jul-22 00:29N 37°46' W 122°21'0 0.1
2017-Jul-21 23:59N 37°46' W 122°21'0 0.0
2017-Jul-21 23:29N 37°46' W 122°21'0 0.0
2017-Jul-21 22:59N 37°46' W 122°21'0 0.1
2017-Jul-21 22:29N 37°46' W 122°21'0 0.0
2017-Jul-21 21:59N 37°46' W 122°21'0 0.0
2017-Jul-21 21:29N 37°46' W 122°21'0 0.1
2017-Jul-21 20:59N 37°46' W 122°21'0 0.1
2017-Jul-21 20:29N 37°46' W 122°21'0 0.0
2017-Jul-21 19:59N 37°46' W 122°21'0 0.2
2017-Jul-21 19:29N 37°46' W 122°21'0 0.2
2017-Jul-21 18:59N 37°46' W 122°21'0 0.1
2017-Jul-21 18:29N 37°45' W 122°21'0 0.1
2017-Jul-21 17:59N 37°45' W 122°21'0 0.0
2017-Jul-21 17:29N 37°45' W 122°21'0 0.0
2017-Jul-21 17:00N 37°45' W 122°21'3 6.4
2017-Jul-21 16:30N 37°48' W 122°22'5 9.3
2017-Jul-21 16:00N 37°53' W 122°24'3 5.4
2017-Jul-21 15:30N 37°54' W 122°22'1 1.0
2017-Jul-21 14:54N 37°55' W 122°22'0 0.0
2017-Jul-21 14:24N 37°55' W 122°22'0 0.0
2017-Jul-21 14:00N 37°55' W 122°22'0 0.0
2017-Jul-21 13:24N 37°55' W 122°22'0 0.0
2017-Jul-21 13:00N 37°55' W 122°22'0 0.0
2017-Jul-21 12:30N 37°55' W 122°22'0 0.0
2017-Jul-21 12:00N 37°55' W 122°22'0 0.0
2017-Jul-21 11:27N 37°55' W 122°22'0 0.0
2017-Jul-21 11:00N 37°55' W 122°22'0 0.0
2017-Jul-21 10:30N 37°55' W 122°22'0 0.0
2017-Jul-21 10:00N 37°55' W 122°22'0 0.0
2017-Jul-21 09:27N 37°55' W 122°22'0 0.0
2017-Jul-21 09:00N 37°55' W 122°22'0 0.1
2017-Jul-21 08:30N 37°55' W 122°22'0 0.0
2017-Jul-21 07:58N 37°55' W 122°22'0 0.0
2017-Jul-21 07:19N 37°55' W 122°22'0 0.0
2017-Jul-21 06:58N 37°55' W 122°22'0 0.0
2017-Jul-21 06:22N 37°55' W 122°22'0 0.0
2017-Jul-21 05:58N 37°55' W 122°22'0 0.0
2017-Jul-21 05:25N 37°55' W 122°22'0 0.0
2017-Jul-21 04:55N 37°55' W 122°22'0 0.0
2017-Jul-21 04:28N 37°55' W 122°22'0 0.0
2017-Jul-21 03:58N 37°55' W 122°22'0 0.0
2017-Jul-21 03:28N 37°55' W 122°22'0 0.0
2017-Jul-21 02:55N 37°55' W 122°22'0 0.0
2017-Jul-21 02:28N 37°55' W 122°22'0 0.0
2017-Jul-21 01:58N 37°55' W 122°22'0 0.0
2017-Jul-21 01:30N 37°55' W 122°22'1 2.7
2017-Jul-21 01:00N 37°54' W 122°23'3 6.0
2017-Jul-21 00:30N 37°51' W 122°23'4 8.2
2017-Jul-21 00:00N 37°48' W 122°20'3 5.1
2017-Jul-20 23:30N 37°48' W 122°17'0 0.0
2017-Jul-20 22:56N 37°48' W 122°17'0 0.0
2017-Jul-20 22:29N 37°48' W 122°17'0 0.0
2017-Jul-20 21:59N 37°48' W 122°17'0 0.0
2017-Jul-20 21:29N 37°48' W 122°17'0 0.0
2017-Jul-20 20:59N 37°48' W 122°17'0 0.0
2017-Jul-20 20:29N 37°48' W 122°17'0 0.0
2017-Jul-20 19:59N 37°48' W 122°17'0 0.0
2017-Jul-20 19:29N 37°48' W 122°17'1 2.3
2017-Jul-20 19:01N 37°48' W 122°18'4 8.4
2017-Jul-20 18:30N 37°48' W 122°24'0 0.7
2017-Jul-20 18:00N 37°48' W 122°24'0 0.1
2017-Jul-20 17:30N 37°48' W 122°24'0 0.0
2017-Jul-20 17:00N 37°48' W 122°24'0 0.0
2017-Jul-20 16:30N 37°48' W 122°24'0 0.1
2017-Jul-20 16:00N 37°48' W 122°24'0 0.1
2017-Jul-20 15:30N 37°48' W 122°24'0 0.0
2017-Jul-20 15:00N 37°48' W 122°24'0 0.0
2017-Jul-20 14:00N 37°48' W 122°24'2 3.3
2017-Jul-20 13:30N 37°50' W 122°24'4 8.3
2017-Jul-20 13:00N 37°54' W 122°25'2 4.9
2017-Jul-20 12:30N 37°55' W 122°22'0 0.0
2017-Jul-20 11:52N 37°55' W 122°22'0 0.0
2017-Jul-20 11:25N 37°55' W 122°22'0 0.0
2017-Jul-20 10:49N 37°55' W 122°22'0 0.0
2017-Jul-20 10:28N 37°55' W 122°22'0 0.0
2017-Jul-20 09:58N 37°55' W 122°22'0 0.0
2017-Jul-20 09:25N 37°55' W 122°22'0 0.0
2017-Jul-20 08:58N 37°55' W 122°22'0 0.0
2017-Jul-20 08:25N 37°55' W 122°22'0 0.0
2017-Jul-20 07:34N 37°55' W 122°22'0 0.0
2017-Jul-20 07:22N 37°55' W 122°22'0 0.0
2017-Jul-20 06:28N 37°55' W 122°22'0 0.0
2017-Jul-20 05:55N 37°55' W 122°22'0 0.0
2017-Jul-20 05:28N 37°55' W 122°22'0 0.0
2017-Jul-20 04:55N 37°55' W 122°22'0 0.0
2017-Jul-20 04:28N 37°55' W 122°22'0 0.0
2017-Jul-20 03:55N 37°55' W 122°22'0 0.0
2017-Jul-20 03:28N 37°55' W 122°22'0 0.0
2017-Jul-20 02:46N 37°55' W 122°22'0 0.0
2017-Jul-20 02:28N 37°55' W 122°22'0 0.0
2017-Jul-20 01:58N 37°55' W 122°22'0 0.0
2017-Jul-20 01:19N 37°55' W 122°22'0 0.0
2017-Jul-20 00:52N 37°55' W 122°22'0 0.0
2017-Jul-20 00:28N 37°55' W 122°22'0 0.0
2017-Jul-19 23:55N 37°55' W 122°22'0 0.0
2017-Jul-19 23:28N 37°55' W 122°22'0 0.0
2017-Jul-19 22:58N 37°55' W 122°22'0 0.0
2017-Jul-19 22:25N 37°55' W 122°22'0 0.0
2017-Jul-19 21:58N 37°55' W 122°22'0 0.0
2017-Jul-19 21:28N 37°55' W 122°22'0 0.0
2017-Jul-19 20:58N 37°55' W 122°22'0 0.0
2017-Jul-19 20:28N 37°55' W 122°22'0 0.0
2017-Jul-19 19:58N 37°55' W 122°22'0 0.0
2017-Jul-19 19:28N 37°55' W 122°22'0 0.0
2017-Jul-19 18:58N 37°55' W 122°22'0 0.0
2017-Jul-19 18:22N 37°55' W 122°22'0 0.0
2017-Jul-19 17:58N 37°55' W 122°22'0 0.0
2017-Jul-19 17:22N 37°55' W 122°22'0 0.0
2017-Jul-19 16:52N 37°55' W 122°22'0 0.0
2017-Jul-19 16:28N 37°55' W 122°22'0 0.0
2017-Jul-19 16:01N 37°55' W 122°22'0 0.0
2017-Jul-19 15:30N 37°55' W 122°22'0 0.0
2017-Jul-19 15:00N 37°55' W 122°22'0 0.0
2017-Jul-19 14:27N 37°55' W 122°22'0 0.0
2017-Jul-19 14:00N 37°55' W 122°22'0 0.0
2017-Jul-19 13:30N 37°55' W 122°22'0 0.0
2017-Jul-19 13:00N 37°55' W 122°22'1 2.3
2017-Jul-19 12:30N 37°54' W 122°23'3 5.5
2017-Jul-19 12:00N 37°52' W 122°24'4 8.5
2017-Jul-19 11:31N 37°48' W 122°21'3 5.7
2017-Jul-19 11:00N 37°48' W 122°17'0 0.0
2017-Jul-19 10:28N 37°48' W 122°17'0 0.0
2017-Jul-19 09:58N 37°48' W 122°17'0 0.0
2017-Jul-19 09:25N 37°48' W 122°17'0 0.0
2017-Jul-19 08:58N 37°48' W 122°17'0 0.0
2017-Jul-19 08:28N 37°48' W 122°17'0 0.0
2017-Jul-19 07:58N 37°48' W 122°17'0 0.0
2017-Jul-19 07:28N 37°48' W 122°17'0 0.0
2017-Jul-19 06:58N 37°48' W 122°17'0 0.0
2017-Jul-19 06:28N 37°48' W 122°17'0 0.0
2017-Jul-19 05:58N 37°48' W 122°17'0 0.0
2017-Jul-19 05:28N 37°48' W 122°17'0 0.0
2017-Jul-19 04:58N 37°48' W 122°17'0 0.0
2017-Jul-19 04:28N 37°48' W 122°17'0 0.0
2017-Jul-19 03:58N 37°48' W 122°17'0 0.0
2017-Jul-19 03:28N 37°48' W 122°17'0 0.0
2017-Jul-19 02:58N 37°48' W 122°17'0 0.0
2017-Jul-19 02:28N 37°48' W 122°17'0 0.0
2017-Jul-19 01:55N 37°48' W 122°17'0 0.0
2017-Jul-19 01:28N 37°48' W 122°17'0 0.0
2017-Jul-19 00:58N 37°48' W 122°17'0 0.0
2017-Jul-19 00:30N 37°48' W 122°17'0 0.0
2017-Jul-18 23:57N 37°48' W 122°17'0 0.0
2017-Jul-18 23:27N 37°48' W 122°17'0 0.0
2017-Jul-18 23:00N 37°48' W 122°17'0 0.0
2017-Jul-18 22:30N 37°48' W 122°17'0 0.0
2017-Jul-18 22:00N 37°48' W 122°17'0 0.0
2017-Jul-18 21:30N 37°48' W 122°17'0 0.0
2017-Jul-18 21:00N 37°48' W 122°17'0 0.0
2017-Jul-18 20:27N 37°48' W 122°17'0 0.0
2017-Jul-18 20:00N 37°48' W 122°17'0 0.0
2017-Jul-18 19:27N 37°48' W 122°17'0 0.0
2017-Jul-18 18:57N 37°48' W 122°17'0 0.0
2017-Jul-18 18:27N 37°48' W 122°17'0 0.0
2017-Jul-18 17:57N 37°48' W 122°17'0 0.0
2017-Jul-18 17:30N 37°48' W 122°17'0 0.0
2017-Jul-18 17:00N 37°48' W 122°17'0 0.0
2017-Jul-18 16:30N 37°48' W 122°17'0 0.0
2017-Jul-18 15:57N 37°48' W 122°17'0 0.0
2017-Jul-18 15:27N 37°48' W 122°17'0 0.0
2017-Jul-18 15:00N 37°48' W 122°17'0 0.0
2017-Jul-18 13:57N 37°48' W 122°17'0 0.0
2017-Jul-18 13:30N 37°48' W 122°17'0 0.0
2017-Jul-18 12:57N 37°48' W 122°17'0 0.0
2017-Jul-18 12:30N 37°48' W 122°17'0 0.0
2017-Jul-18 12:00N 37°48' W 122°17'0 0.0
2017-Jul-18 11:30N 37°48' W 122°17'0 0.0
2017-Jul-18 11:00N 37°48' W 122°17'0 0.0
2017-Jul-18 10:30N 37°48' W 122°17'0 0.0
2017-Jul-18 09:54N 37°48' W 122°17'0 0.0
2017-Jul-18 09:30N 37°48' W 122°17'0 0.0
2017-Jul-18 09:00N 37°48' W 122°17'0 0.0
2017-Jul-18 08:30N 37°48' W 122°17'0 0.0
2017-Jul-18 07:59N 37°48' W 122°17'0 0.0
2017-Jul-18 07:29N 37°48' W 122°17'0 0.0
2017-Jul-18 06:59N 37°48' W 122°17'0 0.0
2017-Jul-18 06:29N 37°48' W 122°17'0 0.0
2017-Jul-18 05:59N 37°48' W 122°17'0 0.0
2017-Jul-18 05:29N 37°48' W 122°17'0 0.0
2017-Jul-18 04:59N 37°48' W 122°17'0 0.0
2017-Jul-18 04:29N 37°48' W 122°17'0 0.0
2017-Jul-18 03:59N 37°48' W 122°17'0 0.0
2017-Jul-18 03:29N 37°48' W 122°17'0 0.0
2017-Jul-18 02:59N 37°48' W 122°17'0 0.0
2017-Jul-18 02:29N 37°48' W 122°17'0 0.0
2017-Jul-18 01:59N 37°48' W 122°17'0 0.0
2017-Jul-18 01:29N 37°48' W 122°17'0 0.0
2017-Jul-18 00:59N 37°48' W 122°17'0 0.0
2017-Jul-18 00:26N 37°48' W 122°17'0 0.0
2017-Jul-17 23:59N 37°48' W 122°17'0 0.0
2017-Jul-17 23:29N 37°48' W 122°17'0 0.0
2017-Jul-17 22:59N 37°48' W 122°17'0 0.1
2017-Jul-17 22:30N 37°48' W 122°17'1 1.8
2017-Jul-17 22:00N 37°48' W 122°18'3 7.0
2017-Jul-17 21:30N 37°48' W 122°23'1 2.2
2017-Jul-17 20:59N 37°48' W 122°24'0 0.0
2017-Jul-17 20:29N 37°48' W 122°24'0 0.1
2017-Jul-17 19:56N 37°48' W 122°24'0 0.0
2017-Jul-17 19:17N 37°48' W 122°24'0 0.0
2017-Jul-17 18:59N 37°48' W 122°24'0 0.0
2017-Jul-17 18:29N 37°48' W 122°24'0 0.1
2017-Jul-17 17:56N 37°48' W 122°24'0 0.1
2017-Jul-17 17:29N 37°48' W 122°24'0 0.0
2017-Jul-17 16:59N 37°48' W 122°24'0 0.1
2017-Jul-17 16:29N 37°48' W 122°24'0 0.1
2017-Jul-17 15:59N 37°48' W 122°24'0 0.1
2017-Jul-17 15:29N 37°48' W 122°24'0 0.1
2017-Jul-17 14:59N 37°48' W 122°24'0 0.0
2017-Jul-17 14:30N 37°48' W 122°24'0 0.4
2017-Jul-17 14:00N 37°48' W 122°24'1 1.6
2017-Jul-17 13:30N 37°49' W 122°24'4 7.0
2017-Jul-17 13:00N 37°53' W 122°24'2 4.1
2017-Jul-17 12:30N 37°54' W 122°23'1 1.6
2017-Jul-17 11:54N 37°55' W 122°22'0 0.0
2017-Jul-17 11:27N 37°55' W 122°22'0 0.0
2017-Jul-17 10:54N 37°55' W 122°22'0 0.0
2017-Jul-17 10:24N 37°55' W 122°22'0 0.0
2017-Jul-17 10:00N 37°55' W 122°22'0 0.0
2017-Jul-17 09:27N 37°55' W 122°22'0 0.0
2017-Jul-17 08:57N 37°55' W 122°22'0 0.0
2017-Jul-17 08:27N 37°55' W 122°22'0 0.0
2017-Jul-17 07:57N 37°55' W 122°22'0 0.0
2017-Jul-17 07:27N 37°55' W 122°22'0 0.0
2017-Jul-17 06:54N 37°55' W 122°22'0 0.0
2017-Jul-17 06:24N 37°55' W 122°22'0 0.0
2017-Jul-17 06:00N 37°55' W 122°22'0 0.0
2017-Jul-17 05:30N 37°55' W 122°22'0 0.0
2017-Jul-17 04:57N 37°55' W 122°22'0 0.0
2017-Jul-17 04:30N 37°55' W 122°22'0 0.0
2017-Jul-17 03:57N 37°55' W 122°22'0 0.0
2017-Jul-17 03:27N 37°55' W 122°22'0 0.0
2017-Jul-17 02:57N 37°55' W 122°22'0 0.0
2017-Jul-17 02:30N 37°55' W 122°22'0 0.0
2017-Jul-17 01:45N 37°55' W 122°22'0 0.0
2017-Jul-17 01:29N 37°55' W 122°22'0 0.0
2017-Jul-17 00:59N 37°55' W 122°22'0 0.0
2017-Jul-17 00:14N 37°55' W 122°22'0 0.0
2017-Jul-16 23:59N 37°55' W 122°22'0 0.0
2017-Jul-16 23:17N 37°55' W 122°22'0 0.0
2017-Jul-16 22:38N 37°55' W 122°22'0 0.0
2017-Jul-16 22:17N 37°55' W 122°22'0 0.0
2017-Jul-16 21:50N 37°55' W 122°22'0 0.0
2017-Jul-16 21:14N 37°55' W 122°22'0 0.0
2017-Jul-16 20:56N 37°55' W 122°22'0 0.0
2017-Jul-16 20:20N 37°55' W 122°22'0 0.0
2017-Jul-16 19:50N 37°55' W 122°22'0 0.0
2017-Jul-16 19:26N 37°55' W 122°22'0 0.0
2017-Jul-16 18:44N 37°55' W 122°22'0 0.0
2017-Jul-16 18:20N 37°55' W 122°22'0 0.0
2017-Jul-16 17:50N 37°55' W 122°22'0 0.0
2017-Jul-16 16:32N 37°55' W 122°22'0 0.0
2017-Jul-16 16:14N 37°55' W 122°22'0 0.0
2017-Jul-16 15:56N 37°55' W 122°22'0 0.0
2017-Jul-16 15:26N 37°55' W 122°22'0 0.0
2017-Jul-16 14:38N 37°55' W 122°22'0 0.0
2017-Jul-16 14:29N 37°55' W 122°22'0 0.0
2017-Jul-16 13:59N 37°55' W 122°22'0 0.0
2017-Jul-16 13:26N 37°55' W 122°22'0 0.0
2017-Jul-16 12:59N 37°55' W 122°22'0 0.0
2017-Jul-16 12:23N 37°55' W 122°22'0 0.0
2017-Jul-16 11:56N 37°55' W 122°22'0 0.0
2017-Jul-16 11:29N 37°55' W 122°22'0 0.0
2017-Jul-16 10:59N 37°55' W 122°22'0 0.0
2017-Jul-16 10:29N 37°55' W 122°22'0 0.0
2017-Jul-16 09:53N 37°55' W 122°22'0 0.0
2017-Jul-16 09:29N 37°55' W 122°22'0 0.0
2017-Jul-16 08:50N 37°55' W 122°22'0 0.0
2017-Jul-16 08:20N 37°55' W 122°22'0 0.0
2017-Jul-16 07:50N 37°55' W 122°22'0 0.0
2017-Jul-16 07:02N 37°55' W 122°22'0 0.0
2017-Jul-16 06:56N 37°55' W 122°22'0 0.0
2017-Jul-16 06:26N 37°55' W 122°22'0 0.0
2017-Jul-16 05:50N 37°55' W 122°22'0 0.0
2017-Jul-16 05:20N 37°55' W 122°22'0 0.0
2017-Jul-16 04:59N 37°55' W 122°22'0 0.0
2017-Jul-16 04:29N 37°55' W 122°22'0 0.0
2017-Jul-16 03:59N 37°55' W 122°22'0 0.0
2017-Jul-16 03:20N 37°55' W 122°22'0 0.0
2017-Jul-16 02:56N 37°55' W 122°22'0 0.0
2017-Jul-16 02:26N 37°55' W 122°22'0 0.0
2017-Jul-16 01:53N 37°55' W 122°22'0 0.0
2017-Jul-16 01:20N 37°55' W 122°22'0 0.0
2017-Jul-16 00:56N 37°55' W 122°22'0 0.0
2017-Jul-16 00:26N 37°55' W 122°22'0 0.0
2017-Jul-15 23:43N 37°55' W 122°22'0 0.0
2017-Jul-15 23:30N 37°55' W 122°22'3 5.1
2017-Jul-15 23:00N 37°54' W 122°25'5 9.2
2017-Jul-15 22:30N 37°50' W 122°23'4 7.3
2017-Jul-15 22:01N 37°46' W 122°21'0 0.9
2017-Jul-15 21:29N 37°46' W 122°20'0 0.0
2017-Jul-15 20:59N 37°46' W 122°20'0 0.0
2017-Jul-15 20:29N 37°46' W 122°20'0 0.0
2017-Jul-15 19:59N 37°46' W 122°20'0 0.0
2017-Jul-15 19:29N 37°46' W 122°20'0 0.2
2017-Jul-15 19:01N 37°46' W 122°20'2 3.6
2017-Jul-15 18:31N 37°48' W 122°20'2 3.9
2017-Jul-15 17:58N 37°48' W 122°17'0 0.0
2017-Jul-15 17:28N 37°48' W 122°17'0 0.0
2017-Jul-15 16:58N 37°48' W 122°17'0 0.0
2017-Jul-15 16:25N 37°48' W 122°17'0 0.0
2017-Jul-15 15:58N 37°48' W 122°17'0 0.0
2017-Jul-15 15:28N 37°48' W 122°17'0 0.0
2017-Jul-15 14:58N 37°48' W 122°17'0 0.0
2017-Jul-15 13:58N 37°48' W 122°17'0 0.0
2017-Jul-15 13:28N 37°48' W 122°17'0 0.0
2017-Jul-15 12:58N 37°48' W 122°17'0 0.0
2017-Jul-15 12:28N 37°48' W 122°17'0 0.0
2017-Jul-15 11:55N 37°48' W 122°17'0 0.0
2017-Jul-15 11:28N 37°48' W 122°17'0 0.0
2017-Jul-15 10:58N 37°48' W 122°17'0 0.0
2017-Jul-15 10:22N 37°48' W 122°17'0 0.0
2017-Jul-15 09:58N 37°48' W 122°17'0 0.0
2017-Jul-15 09:28N 37°48' W 122°17'0 0.0
2017-Jul-15 08:55N 37°48' W 122°17'0 0.0
2017-Jul-15 08:28N 37°48' W 122°17'0 0.0
2017-Jul-15 07:58N 37°48' W 122°17'0 0.0
2017-Jul-15 07:28N 37°48' W 122°17'0 0.0
2017-Jul-15 07:00N 37°48' W 122°17'3 6.0
2017-Jul-15 06:30N 37°47' W 122°21'4 7.2
2017-Jul-15 06:00N 37°44' W 122°20'0 0.1
2017-Jul-15 05:31N 37°44' W 122°20'0 0.1
2017-Jul-15 05:00N 37°44' W 122°20'0 0.0
2017-Jul-15 04:31N 37°44' W 122°20'0 0.1
2017-Jul-15 04:01N 37°44' W 122°20'0 0.1
2017-Jul-15 03:30N 37°44' W 122°20'0 0.0
2017-Jul-15 03:00N 37°44' W 122°20'0 0.1
2017-Jul-15 02:30N 37°44' W 122°19'0 0.2
2017-Jul-15 02:00N 37°44' W 122°19'0 0.1
2017-Jul-15 01:30N 37°44' W 122°19'2 4.4
2017-Jul-15 01:00N 37°46' W 122°20'3 5.1
2017-Jul-15 00:30N 37°48' W 122°18'1 1.7
2017-Jul-15 00:00N 37°48' W 122°17'0 0.0
2017-Jul-14 23:30N 37°48' W 122°17'0 0.0
2017-Jul-14 23:00N 37°48' W 122°17'0 0.0
2017-Jul-14 22:30N 37°48' W 122°17'0 0.0
2017-Jul-14 22:00N 37°48' W 122°17'0 0.0
2017-Jul-14 21:30N 37°48' W 122°17'0 0.0
2017-Jul-14 21:00N 37°48' W 122°17'0 0.0
2017-Jul-14 20:30N 37°48' W 122°17'0 0.0
2017-Jul-14 20:00N 37°48' W 122°17'0 0.0
2017-Jul-14 19:30N 37°48' W 122°17'0 0.0
2017-Jul-14 19:00N 37°48' W 122°17'0 0.0
2017-Jul-14 18:30N 37°48' W 122°17'0 0.0
2017-Jul-14 18:00N 37°48' W 122°17'0 0.0
2017-Jul-14 17:30N 37°48' W 122°17'0 0.0
2017-Jul-14 17:00N 37°48' W 122°17'0 0.0
2017-Jul-14 16:30N 37°48' W 122°17'0 0.0
2017-Jul-14 16:00N 37°48' W 122°17'0 0.0
2017-Jul-14 15:30N 37°48' W 122°17'0 0.0
2017-Jul-14 15:00N 37°48' W 122°17'0 0.0
2017-Jul-14 14:31N 37°48' W 122°17'0 0.0
2017-Jul-14 14:00N 37°48' W 122°17'0 0.0
2017-Jul-14 13:30N 37°48' W 122°17'0 0.0
2017-Jul-14 13:00N 37°48' W 122°17'0 0.0
2017-Jul-14 12:31N 37°48' W 122°17'0 0.0
2017-Jul-14 12:00N 37°48' W 122°17'0 0.0
2017-Jul-14 11:30N 37°48' W 122°17'0 0.0
2017-Jul-14 11:00N 37°48' W 122°17'0 0.0
2017-Jul-14 10:30N 37°48' W 122°17'0 0.0
2017-Jul-14 10:00N 37°48' W 122°17'0 0.0
2017-Jul-14 09:30N 37°48' W 122°17'0 0.0
2017-Jul-14 09:00N 37°48' W 122°17'0 0.0
2017-Jul-14 08:31N 37°48' W 122°17'0 0.0
2017-Jul-14 08:00N 37°48' W 122°17'0 0.0
2017-Jul-14 07:31N 37°48' W 122°17'0 0.0
2017-Jul-14 07:00N 37°48' W 122°17'  

Dump ship's entire track history